Time;durP1;ratioP1;P1;durP2;ratioP2;P2;SDS_P1;SDS_P2;PMS_P1;PMS_P2;Temp;Humidity;BMP_temperature;BMP_pressure;BME280_temperature;BME280_humidity;BME280_pressure;Samples;Min_cycle;Max_cycle;Signal;HPM_P1;HPM_P2
2023/01/16 00:02:12;;;;;;;1.60;0.53;;;3.00;99.90;;;;;;5022822;28;20580;-73
2023/01/16 00:04:37;;;;;;;3.37;0.67;;;3.10;99.90;;;;;;5010683;28;20258;-72
2023/01/16 00:07:03;;;;;;;5.40;0.60;;;3.20;99.90;;;;;;5023099;28;20181;-74
2023/01/16 00:09:28;;;;;;;2.00;0.83;;;3.30;99.90;;;;;;5030631;28;20177;-73
2023/01/16 00:11:54;;;;;;;2.40;0.80;;;3.30;99.90;;;;;;5026158;28;20702;-73
2023/01/16 00:14:19;;;;;;;9.10;0.80;;;3.30;99.90;;;;;;4997957;28;20196;-72
2023/01/16 00:16:45;;;;;;;2.87;0.70;;;3.30;99.90;;;;;;5020778;28;20186;-73
2023/01/16 00:19:10;;;;;;;2.60;0.80;;;3.40;99.90;;;;;;5010530;28;20178;-73
2023/01/16 00:21:36;;;;;;;2.20;0.60;;;3.50;99.90;;;;;;5011258;28;20198;-74
2023/01/16 00:24:01;;;;;;;3.10;0.67;;;3.50;99.90;;;;;;5029869;28;20178;-73
2023/01/16 00:26:28;;;;;;;2.13;0.97;;;3.60;99.90;;;;;;5023254;28;20614;-73
2023/01/16 00:28:54;;;;;;;2.40;0.60;;;3.60;99.90;;;;;;5020583;28;20581;-73
2023/01/16 00:31:20;;;;;;;2.10;0.70;;;3.60;99.90;;;;;;5033089;28;20840;-70
2023/01/16 00:33:45;;;;;;;2.33;0.57;;;3.60;99.90;;;;;;5014921;28;20887;-73
2023/01/16 00:36:12;;;;;;;2.80;0.60;;;3.60;99.90;;;;;;5018892;28;20570;-73
2023/01/16 00:38:37;;;;;;;7.40;0.87;;;3.60;99.90;;;;;;5034214;28;20255;-74
2023/01/16 00:41:03;;;;;;;1.67;0.80;;;3.60;99.90;;;;;;5033217;28;20518;-71
2023/01/16 00:43:29;;;;;;;2.43;0.70;;;3.60;99.90;;;;;;5017238;28;20182;-73
2023/01/16 00:45:56;;;;;;;4.73;1.00;;;3.70;99.90;;;;;;5016089;28;20220;-73
2023/01/16 00:48:22;;;;;;;6.13;1.03;;;3.70;99.90;;;;;;5033821;28;20183;-73
2023/01/16 00:50:48;;;;;;;3.53;0.77;;;3.70;99.90;;;;;;5015241;28;20412;-73
2023/01/16 00:53:13;;;;;;;2.50;0.70;;;3.70;99.90;;;;;;5019028;28;20193;-72
2023/01/16 00:55:41;;;;;;;2.97;0.70;;;3.80;99.90;;;;;;5013854;28;20484;-71
2023/01/16 00:58:10;;;;;;;2.50;0.70;;;3.80;99.90;;;;;;5013717;28;20682;-73
2023/01/16 01:00:37;;;;;;;7.00;0.80;;;3.70;99.90;;;;;;5014077;28;20956;-73
2023/01/16 01:03:03;;;;;;;1.37;0.57;;;3.60;99.90;;;;;;5024346;28;20775;-72
2023/01/16 01:05:29;;;;;;;5.47;0.80;;;3.60;99.90;;;;;;5033186;28;20513;-73
2023/01/16 01:07:54;;;;;;;2.97;0.77;;;3.50;99.90;;;;;;5033342;28;20451;-73
2023/01/16 01:10:20;;;;;;;2.50;0.70;;;3.60;99.90;;;;;;5033396;28;20235;-71
2023/01/16 01:12:46;;;;;;;1.17;0.63;;;3.60;99.90;;;;;;5004732;28;20199;-73
2023/01/16 01:15:12;;;;;;;1.23;0.60;;;3.50;99.90;;;;;;5013365;28;20464;-73
2023/01/16 01:17:38;;;;;;;1.57;0.60;;;3.40;99.90;;;;;;5013543;28;20176;-73
2023/01/16 01:20:04;;;;;;;4.87;0.73;;;3.40;99.90;;;;;;5013555;28;21006;-73
2023/01/16 01:22:29;;;;;;;2.30;0.60;;;3.40;99.90;;;;;;5019365;28;20228;-73
2023/01/16 01:24:55;;;;;;;1.57;0.50;;;3.40;99.90;;;;;;5032588;28;20505;-73
2023/01/16 01:27:21;;;;;;;2.60;0.50;;;3.30;99.90;;;;;;5032544;28;20209;-75
2023/01/16 01:29:46;;;;;;;2.90;0.60;;;3.30;99.90;;;;;;5032867;28;20706;-74
2023/01/16 01:32:12;;;;;;;5.27;0.93;;;3.30;99.90;;;;;;5026659;28;20212;-74
2023/01/16 01:34:37;;;;;;;1.33;0.60;;;3.20;99.90;;;;;;5012994;28;20244;-73
2023/01/16 01:37:05;;;;;;;5.80;0.60;;;3.20;99.90;;;;;;5012944;28;20182;-74
2023/01/16 01:39:31;;;;;;;1.87;0.80;;;3.10;99.90;;;;;;5014640;28;20183;-74
2023/01/16 01:44:52;;;;;;;1.10;0.60;;;3.20;99.90;;;;;;5013626;28;20668;-72
2023/01/16 01:47:22;;;;;;;1.57;0.50;;;3.20;99.90;;;;;;5012930;28;20420;-73
2023/01/16 01:49:50;;;;;;;5.50;1.03;;;3.20;99.90;;;;;;5013334;28;20425;-73
2023/01/16 01:52:17;;;;;;;2.60;0.70;;;3.30;99.90;;;;;;5019538;28;20455;-72
2023/01/16 01:54:48;;;;;;;2.80;0.60;;;3.30;99.90;;;;;;5022553;28;20467;-73
2023/01/16 01:57:22;;;;;;;4.47;0.60;;;3.20;99.90;;;;;;5012538;28;20491;-74
2023/01/16 03:33:18;;;;;;;3.83;0.70;;;2.90;99.90;;;;;;5000576;28;20766;-75
2023/01/16 03:35:54;;;;;;;6.10;0.83;;;2.90;99.90;;;;;;5006935;28;20463;-76
2023/01/16 03:38:21;;;;;;;4.00;0.70;;;2.90;99.90;;;;;;4993233;28;20523;-72
2023/01/16 03:40:48;;;;;;;3.03;0.70;;;2.90;99.90;;;;;;5010079;28;20473;-72
2023/01/16 03:43:23;;;;;;;2.70;0.60;;;2.80;99.90;;;;;;4991738;28;20838;-72
2023/01/16 03:45:57;;;;;;;0.83;0.60;;;2.80;99.90;;;;;;4989053;28;20933;-71
2023/01/16 03:48:27;;;;;;;5.60;0.60;;;2.70;99.90;;;;;;4980595;28;20427;-73
2023/01/16 03:51:04;;;;;;;5.03;0.70;;;2.60;99.90;;;;;;4988986;28;20503;-72
2023/01/16 03:53:35;;;;;;;4.00;0.67;;;2.60;99.90;;;;;;4991802;28;20429;-72
2023/01/16 03:56:19;;;;;;;6.80;0.80;;;2.60;99.90;;;;;;4972781;28;20480;-72
2023/01/16 03:58:47;;;;;;;2.20;0.60;;;2.50;99.90;;;;;;4972613;28;20438;-72
2023/01/16 04:01:20;;;;;;;2.07;0.50;;;2.50;99.90;;;;;;4972593;28;20764;-72
2023/01/16 04:04:12;;;;;;;2.20;0.60;;;2.50;99.90;;;;;;4973292;28;20426;-72
2023/01/16 04:06:44;;;;;;;6.03;0.60;;;2.50;99.90;;;;;;4992319;28;20832;-74
2023/01/16 04:09:16;;;;;;;2.70;0.70;;;2.50;99.90;;;;;;4992338;28;20438;-75
2023/01/16 04:11:43;;;;;;;2.10;0.90;;;2.40;99.90;;;;;;4991776;28;20971;-73
2023/01/16 04:14:13;;;;;;;1.20;0.83;;;2.40;99.90;;;;;;4991887;28;20445;-74
2023/01/16 04:16:39;;;;;;;2.40;0.70;;;2.40;99.90;;;;;;4991748;28;20961;-73
2023/01/16 04:19:06;;;;;;;1.77;0.80;;;2.40;99.90;;;;;;4991844;28;20405;-74
2023/01/16 04:21:32;;;;;;;1.03;0.73;;;2.40;99.90;;;;;;4991333;28;20454;-73
2023/01/16 04:23:59;;;;;;;4.03;0.90;;;2.40;99.90;;;;;;4974275;28;20433;-74
2023/01/16 04:26:25;;;;;;;2.60;0.90;;;2.40;99.90;;;;;;4991994;28;20415;-73
2023/01/16 04:28:54;;;;;;;1.50;0.90;;;2.50;99.90;;;;;;4991718;28;20421;-73
2023/01/16 04:31:24;;;;;;;2.73;0.87;;;2.50;99.90;;;;;;4991273;28;20487;-74
2023/01/16 04:33:50;;;;;;;3.53;0.83;;;2.50;99.90;;;;;;4991390;28;20421;-72
2023/01/16 04:36:15;;;;;;;1.63;0.70;;;2.30;99.90;;;;;;4991755;28;20457;-73
2023/01/16 04:38:40;;;;;;;8.70;0.90;;;2.30;99.90;;;;;;4991615;28;20678;-73
2023/01/16 04:41:06;;;;;;;3.10;1.10;;;2.20;99.90;;;;;;4991274;28;20234;-73
2023/01/16 04:43:31;;;;;;;4.63;0.70;;;2.10;99.90;;;;;;4991868;28;20218;-73
2023/01/16 04:45:57;;;;;;;1.63;0.70;;;1.90;99.90;;;;;;4991392;28;20222;-73
2023/01/16 04:48:22;;;;;;;2.13;0.80;;;1.80;99.90;;;;;;4991799;28;20228;-75
2023/01/16 04:50:49;;;;;;;2.77;0.70;;;1.70;99.90;;;;;;4991640;28;20183;-73
2023/01/16 04:53:15;;;;;;;8.37;0.93;;;1.60;99.90;;;;;;4991455;28;20203;-72
2023/01/16 04:55:40;;;;;;;3.80;1.17;;;1.50;99.90;;;;;;4991174;28;21047;-73
2023/01/16 04:58:06;;;;;;;4.10;1.00;;;1.50;99.90;;;;;;4991593;28;20224;-74
2023/01/16 05:00:31;;;;;;;1.90;0.50;;;1.40;99.90;;;;;;4991357;28;20645;-73
2023/01/16 05:02:57;;;;;;;8.43;0.80;;;1.30;99.90;;;;;;4991362;28;20199;-73
2023/01/16 05:05:22;;;;;;;2.03;0.60;;;1.20;99.90;;;;;;4991305;28;20197;-73
2023/01/16 05:08:15;;;;;;;1.27;0.53;;;1.20;99.90;;;;;;4991260;28;20534;-75
2023/01/16 05:10:36;;;;;;;7.20;0.80;;;1.10;99.90;;;;;;4990989;28;20243;-74
2023/01/16 05:13:02;;;;;;;1.47;0.70;;;1.00;99.90;;;;;;4991123;28;20417;-74
2023/01/16 05:15:28;;;;;;;2.10;0.70;;;1.00;99.90;;;;;;4991850;28;20218;-73
2023/01/16 05:17:54;;;;;;;1.43;0.70;;;1.00;99.90;;;;;;4995116;28;20543;-73
2023/01/16 05:20:19;;;;;;;2.63;1.17;;;1.00;99.90;;;;;;4995050;28;20178;-73
2023/01/16 05:22:45;;;;;;;4.87;1.30;;;1.10;99.90;;;;;;4994295;28;20541;-73
2023/01/16 05:25:10;;;;;;;2.90;1.07;;;1.20;99.90;;;;;;4994760;28;20180;-73
2023/01/16 05:27:36;;;;;;;0.90;0.80;;;1.20;99.90;;;;;;4994924;28;20653;-73
2023/01/16 05:30:02;;;;;;;2.33;0.80;;;1.30;99.90;;;;;;4994994;28;20550;-73
2023/01/16 05:32:28;;;;;;;1.63;1.00;;;1.40;99.90;;;;;;4994363;28;20209;-73
2023/01/16 05:34:53;;;;;;;3.77;1.03;;;1.40;99.90;;;;;;4994301;28;20465;-73
2023/01/16 05:37:19;;;;;;;1.13;0.77;;;1.40;99.90;;;;;;4994652;28;20184;-72
2023/01/16 05:39:46;;;;;;;1.57;1.13;;;1.40;99.90;;;;;;4994610;28;20181;-73
2023/01/16 05:42:20;;;;;;;2.83;1.27;;;1.50;99.90;;;;;;4977513;28;20198;-74
2023/01/16 05:44:48;;;;;;;3.00;1.70;;;1.50;99.90;;;;;;4996656;28;20432;-74
2023/01/16 05:47:14;;;;;;;2.70;1.10;;;1.50;99.90;;;;;;4978280;28;20422;-74
2023/01/16 05:49:39;;;;;;;1.90;1.20;;;1.60;99.90;;;;;;4994372;28;20430;-73
2023/01/16 05:52:05;;;;;;;3.07;1.00;;;1.60;99.90;;;;;;4994120;28;20210;-73
2023/01/16 05:54:30;;;;;;;4.17;1.50;;;1.70;99.90;;;;;;4994040;28;20185;-73
2023/01/16 05:56:56;;;;;;;5.93;1.20;;;1.70;99.90;;;;;;4994313;28;20278;-73
2023/01/16 05:59:21;;;;;;;3.30;1.90;;;1.70;99.90;;;;;;4994515;28;20611;-73
2023/01/16 06:01:47;;;;;;;2.70;1.37;;;1.70;99.90;;;;;;4994353;28;20294;-73
2023/01/16 06:04:12;;;;;;;3.33;1.40;;;1.80;99.90;;;;;;4993916;28;20181;-72
2023/01/16 06:06:38;;;;;;;2.60;0.80;;;1.80;99.90;;;;;;4993853;28;20181;-73
2023/01/16 06:09:03;;;;;;;2.27;1.43;;;1.80;99.90;;;;;;4976689;28;20188;-73
2023/01/16 06:11:29;;;;;;;6.07;1.37;;;1.80;99.90;;;;;;4993636;28;20209;-74
2023/01/16 06:13:55;;;;;;;5.43;1.10;;;1.80;99.90;;;;;;4991922;28;20190;-72
2023/01/16 06:16:22;;;;;;;1.10;0.93;;;1.90;99.90;;;;;;4990578;28;20214;-72
2023/01/16 06:18:48;;;;;;;4.83;1.23;;;1.90;99.90;;;;;;4986808;28;20445;-72
2023/01/16 06:21:14;;;;;;;5.00;0.87;;;2.00;99.90;;;;;;4995295;28;20470;-72
2023/01/16 06:23:40;;;;;;;2.90;0.80;;;2.00;99.90;;;;;;4997562;28;20851;-72
2023/01/16 06:26:09;;;;;;;1.97;0.80;;;2.00;99.90;;;;;;4992727;28;20171;-74
2023/01/16 06:28:37;;;;;;;3.90;1.10;;;2.00;99.90;;;;;;4992356;28;20178;-73
2023/01/16 06:31:04;;;;;;;3.20;1.00;;;2.00;99.90;;;;;;4992131;28;20778;-72
2023/01/16 06:33:30;;;;;;;2.10;1.20;;;2.00;99.90;;;;;;4993244;28;20436;-73
2023/01/16 06:35:55;;;;;;;1.83;1.10;;;2.00;99.90;;;;;;4993512;28;20472;-72
2023/01/16 06:38:21;;;;;;;1.70;0.70;;;2.00;99.90;;;;;;4993604;28;20616;-72
2023/01/16 06:40:47;;;;;;;2.40;1.00;;;2.10;99.90;;;;;;4993163;28;20265;-72
2023/01/16 06:43:13;;;;;;;1.40;0.70;;;2.10;99.90;;;;;;4993277;28;20189;-72
2023/01/16 06:45:38;;;;;;;3.10;1.30;;;2.20;99.90;;;;;;4993316;28;20184;-72
2023/01/16 06:48:04;;;;;;;3.20;1.00;;;2.20;99.90;;;;;;4993310;28;20420;-69
2023/01/16 06:50:29;;;;;;;2.03;0.90;;;2.20;99.90;;;;;;4993116;28;20228;-72
2023/01/16 06:52:55;;;;;;;1.70;0.83;;;2.30;99.90;;;;;;4992910;28;20293;-72
2023/01/16 06:55:20;;;;;;;3.13;0.83;;;2.30;99.90;;;;;;4993260;28;20573;-71
2023/01/16 06:57:46;;;;;;;3.50;0.90;;;2.30;99.90;;;;;;4993235;28;20219;-71
2023/01/16 07:00:13;;;;;;;1.80;0.70;;;2.40;99.90;;;;;;4975494;28;20311;-72
2023/01/16 07:02:39;;;;;;;2.30;1.10;;;2.40;99.90;;;;;;4992566;28;20561;-71
2023/01/16 07:05:09;;;;;;;1.43;0.70;;;2.50;99.90;;;;;;4992922;28;20421;-71
2023/01/16 07:07:34;;;;;;;1.50;1.00;;;2.60;99.90;;;;;;4992828;28;20933;-72
2023/01/16 07:10:00;;;;;;;6.77;1.13;;;2.60;99.90;;;;;;4992798;28;20445;-71
2023/01/16 07:12:26;;;;;;;5.13;0.97;;;2.60;99.90;;;;;;4992786;28;20303;-72
2023/01/16 07:23:25;;;;;;;4.30;1.10;;;2.70;99.90;;;;;;4992457;28;20421;-71
2023/01/16 07:25:51;;;;;;;7.13;0.93;;;2.80;99.90;;;;;;4992396;28;20476;-72
2023/01/16 07:28:17;;;;;;;1.40;0.80;;;2.80;99.90;;;;;;4992581;28;20421;-71
2023/01/16 07:30:44;;;;;;;3.93;1.20;;;2.90;99.90;;;;;;4992172;28;21010;-71
2023/01/16 07:33:10;;;;;;;1.60;1.10;;;3.00;99.90;;;;;;4992406;28;20177;-72
2023/01/16 07:35:36;;;;;;;1.63;1.10;;;3.00;99.90;;;;;;4992235;28;20460;-73
2023/01/16 07:38:02;;;;;;;3.50;1.00;;;3.00;99.90;;;;;;4992224;28;20419;-72
2023/01/16 07:40:27;;;;;;;1.53;0.80;;;3.10;99.90;;;;;;4992296;28;20548;-72
2023/01/16 07:42:53;;;;;;;2.90;1.20;;;3.10;99.90;;;;;;4992043;28;20209;-73
2023/01/16 07:45:19;;;;;;;1.43;0.90;;;3.10;99.90;;;;;;4992578;28;20190;-72
2023/01/16 07:47:44;;;;;;;2.63;0.90;;;3.20;99.90;;;;;;4992315;28;20193;-72
2023/01/16 07:50:10;;;;;;;1.43;1.20;;;3.20;99.90;;;;;;4992303;28;20557;-72
2023/01/16 07:52:36;;;;;;;3.63;1.00;;;3.30;99.90;;;;;;4991824;28;20212;-73
2023/01/16 07:55:01;;;;;;;1.70;1.00;;;3.30;99.90;;;;;;4992052;28;20471;-72
2023/01/16 07:57:27;;;;;;;2.33;0.93;;;3.30;99.90;;;;;;4992144;28;20209;-72
2023/01/16 07:59:53;;;;;;;1.57;0.90;;;3.30;99.90;;;;;;4992383;28;20174;-72
2023/01/16 08:02:19;;;;;;;1.67;0.90;;;3.30;99.90;;;;;;4991847;28;20305;-72
2023/01/16 08:04:44;;;;;;;4.87;1.20;;;3.40;99.90;;;;;;4992196;28;20181;-72
2023/01/16 08:07:10;;;;;;;1.13;1.03;;;3.40;99.90;;;;;;4992100;28;20298;-71
2023/01/16 08:09:35;;;;;;;2.30;1.30;;;3.40;99.90;;;;;;4991889;28;20227;-72
2023/01/16 08:12:01;;;;;;;1.77;1.20;;;3.40;99.90;;;;;;4991678;28;20206;-71
2023/01/16 08:14:26;;;;;;;1.60;1.17;;;3.50;99.90;;;;;;4991987;28;20182;-72
2023/01/16 08:16:52;;;;;;;2.00;0.90;;;3.50;99.90;;;;;;4992028;28;20213;-72
2023/01/16 08:19:17;;;;;;;1.87;1.20;;;3.50;99.90;;;;;;4992028;28;20183;-73
2023/01/16 08:21:43;;;;;;;1.97;1.00;;;3.70;99.90;;;;;;4991625;28;20234;-72
2023/01/16 08:24:09;;;;;;;3.30;1.47;;;3.70;99.90;;;;;;4991905;28;20175;-72
2023/01/16 08:26:35;;;;;;;2.30;0.83;;;3.80;99.90;;;;;;4991774;28;20177;-72
2023/01/16 08:29:02;;;;;;;1.73;1.00;;;3.80;99.90;;;;;;4991704;28;20492;-71
2023/01/16 08:31:28;;;;;;;7.57;1.50;;;3.90;99.90;;;;;;4991351;28;21167;-72
2023/01/16 08:33:53;;;;;;;3.70;1.10;;;4.00;99.90;;;;;;4991766;28;20422;-72
2023/01/16 08:36:20;;;;;;;3.70;1.37;;;4.00;99.90;;;;;;4992146;28;20454;-72
2023/01/16 08:38:49;;;;;;;4.23;1.30;;;4.10;99.90;;;;;;4991621;28;20258;-72
2023/01/16 08:52:17;;;;;;;3.37;0.67;;;4.20;99.90;;;;;;4995446;28;20512;-72
2023/01/16 08:54:43;;;;;;;2.93;0.70;;;4.30;99.90;;;;;;4995092;28;21243;-72
2023/01/16 08:57:09;;;;;;;2.27;0.77;;;4.30;99.90;;;;;;4995349;28;20637;-72
2023/01/16 08:59:35;;;;;;;1.00;0.60;;;4.30;99.90;;;;;;4995102;28;20207;-72
2023/01/16 09:02:02;;;;;;;1.40;0.70;;;4.30;99.90;;;;;;4995003;28;20486;-72
2023/01/16 09:04:28;;;;;;;3.13;0.70;;;4.30;99.90;;;;;;4995067;28;20315;-72
2023/01/16 09:06:53;;;;;;;2.00;0.63;;;4.40;99.90;;;;;;4995163;28;20419;-73
2023/01/16 09:09:19;;;;;;;1.00;0.60;;;4.40;99.90;;;;;;4995284;28;20282;-71
2023/01/16 09:14:29;;;;;;;0.90;0.70;;;4.50;99.90;;;;;;4994902;28;20453;-72
2023/01/16 09:16:55;;;;;;;1.10;0.60;;;4.50;99.90;;;;;;4995000;28;20497;-72
2023/01/16 09:19:20;;;;;;;1.00;0.70;;;4.50;99.90;;;;;;4994908;28;20218;-72
2023/01/16 09:21:46;;;;;;;0.80;0.80;;;4.60;99.90;;;;;;4994468;28;20202;-72
2023/01/16 09:24:11;;;;;;;3.33;1.00;;;4.60;99.90;;;;;;4994933;28;20741;-72
2023/01/16 09:26:37;;;;;;;1.30;0.83;;;4.50;99.90;;;;;;4994830;28;20189;-71
2023/01/16 09:29:03;;;;;;;0.87;0.60;;;4.50;99.90;;;;;;4994695;28;20192;-72
2023/01/16 09:31:28;;;;;;;1.97;0.60;;;4.60;99.90;;;;;;4994297;28;20253;-71
2023/01/16 09:33:54;;;;;;;4.80;1.10;;;4.60;99.90;;;;;;4995024;28;20560;-73
2023/01/16 09:36:20;;;;;;;1.17;0.50;;;4.70;99.90;;;;;;4994613;28;20208;-72
2023/01/16 09:38:46;;;;;;;1.67;0.50;;;4.70;99.90;;;;;;4994352;28;20908;-72
2023/01/16 09:44:01;;;;;;;1.73;0.80;;;4.80;99.90;;;;;;4994534;28;20260;-72
2023/01/16 09:46:30;;;;;;;1.00;0.50;;;4.90;99.90;;;;;;4994454;28;20859;-72
2023/01/16 09:49:30;;;;;;;2.33;0.50;;;4.90;99.90;;;;;;4994409;28;20426;-73
2023/01/16 10:00:30;;;;;;;2.80;0.70;;;5.30;99.90;;;;;;4994405;28;20789;-71
2023/01/16 10:02:55;;;;;;;1.20;0.63;;;5.30;99.90;;;;;;4994045;28;20435;-71
2023/01/16 10:05:24;;;;;;;1.03;0.70;;;5.40;99.90;;;;;;4994345;28;20423;-72
2023/01/16 10:08:17;;;;;;;1.40;0.83;;;5.40;99.90;;;;;;4994760;28;20276;-72
2023/01/16 10:11:03;;;;;;;1.90;0.70;;;5.40;99.90;;;;;;4995444;28;20428;-72
2023/01/16 10:13:29;;;;;;;0.73;0.50;;;5.40;99.90;;;;;;4995201;28;20781;-72
2023/01/16 10:16:23;;;;;;;1.63;0.60;;;5.40;99.90;;;;;;4994349;28;20469;-71
2023/01/16 10:19:14;;;;;;;0.70;0.50;;;5.40;99.90;;;;;;4995110;28;20573;-73
2023/01/16 10:22:05;;;;;;;2.97;0.60;;;5.40;99.90;;;;;;4994642;28;20430;-73
2023/01/16 10:25:04;;;;;;;2.03;0.50;;;5.50;99.90;;;;;;4994216;28;20925;-72
2023/01/16 10:27:56;;;;;;;1.63;0.70;;;5.50;99.90;;;;;;4993817;28;20917;-71
2023/01/16 10:30:47;;;;;;;0.90;0.60;;;5.50;99.90;;;;;;4993867;28;20432;-72
2023/01/16 10:33:20;;;;;;;0.80;0.50;;;5.50;99.90;;;;;;4993746;28;20445;-70
2023/01/16 10:35:48;;;;;;;1.03;0.60;;;5.50;99.90;;;;;;4993753;28;20462;-72
2023/01/16 10:38:41;;;;;;;1.00;0.60;;;5.60;99.90;;;;;;4993689;28;20423;-71
2023/01/16 10:49:39;;;;;;;1.10;0.80;;;5.80;99.90;;;;;;4993387;28;20451;-72
2023/01/16 10:52:05;;;;;;;0.70;0.60;;;5.80;99.90;;;;;;4993237;28;20436;-72
2023/01/16 10:54:31;;;;;;;0.90;0.50;;;5.90;99.90;;;;;;4993229;28;20199;-72
2023/01/16 10:57:03;;;;;;;1.30;0.57;;;6.00;99.90;;;;;;4993190;28;20544;-72
2023/01/16 10:59:31;;;;;;;0.80;0.50;;;6.00;99.90;;;;;;4994335;28;20227;-72
2023/01/16 11:02:01;;;;;;;1.00;0.50;;;6.00;99.90;;;;;;4995361;28;20428;-72
2023/01/16 11:04:34;;;;;;;1.57;0.50;;;6.00;99.90;;;;;;4993565;28;20515;-73
2023/01/16 11:07:15;;;;;;;4.70;0.60;;;6.10;99.90;;;;;;4993466;28;20424;-73
2023/01/16 11:09:44;;;;;;;3.83;1.60;;;6.20;99.90;;;;;;4992849;28;20414;-74
2023/01/16 11:20:44;;;;;;;0.70;0.60;;;6.30;99.90;;;;;;4993337;28;20422;-72
2023/01/16 11:23:20;;;;;;;0.80;0.60;;;6.30;99.90;;;;;;4993003;28;20449;-73
2023/01/16 11:25:49;;;;;;;1.30;0.50;;;6.40;99.90;;;;;;4992995;28;20507;-72
2023/01/16 11:28:22;;;;;;;2.23;0.53;;;6.50;99.90;;;;;;4993074;28;20415;-73
2023/01/16 11:30:51;;;;;;;2.07;0.43;;;6.50;99.90;;;;;;4992239;28;20421;-72
2023/01/16 11:33:27;;;;;;;0.70;0.40;;;6.50;99.90;;;;;;4992910;28;20444;-72
2023/01/16 11:35:56;;;;;;;2.50;0.90;;;6.60;99.90;;;;;;4992784;28;20478;-72
2023/01/16 11:38:23;;;;;;;1.87;0.50;;;6.60;99.90;;;;;;4992770;28;20413;-73
2023/01/16 11:40:52;;;;;;;0.97;0.50;;;6.60;99.90;;;;;;4992784;28;20421;-73
2023/01/16 11:46:27;;;;;;;1.33;0.60;;;6.60;99.90;;;;;;4992623;28;20416;-71
2023/01/16 11:48:54;;;;;;;1.00;0.50;;;6.70;99.90;;;;;;4992204;28;20514;-71
2023/01/16 11:51:24;;;;;;;0.70;0.50;;;6.60;99.90;;;;;;4992167;28;20870;-73
2023/01/16 11:53:51;;;;;;;0.90;0.50;;;6.60;99.90;;;;;;4992190;28;20525;-73
2023/01/16 11:56:35;;;;;;;0.80;0.50;;;6.60;99.90;;;;;;4992325;28;20961;-74
2023/01/16 11:59:23;;;;;;;1.70;0.40;;;6.70;99.90;;;;;;4992246;28;20420;-72
2023/01/16 12:02:25;;;;;;;1.17;0.47;;;6.70;99.90;;;;;;4985962;28;20438;-71
2023/01/16 12:08:20;;;;;;;0.80;0.50;;;6.80;99.90;;;;;;4972925;28;20451;-72
2023/01/16 12:11:05;;;;;;;0.80;0.50;;;6.80;99.90;;;;;;4980226;28;20424;-70
2023/01/16 12:17:23;;;;;;;1.00;0.57;;;6.80;99.90;;;;;;4992040;28;20996;-72
2023/01/16 12:20:00;;;;;;;0.60;0.40;;;6.80;99.90;;;;;;4991637;28;20468;-72
2023/01/16 12:22:47;;;;;;;1.77;0.50;;;6.90;99.90;;;;;;4991763;28;20475;-71
2023/01/16 12:25:19;;;;;;;0.87;0.50;;;6.80;99.90;;;;;;4992597;28;20447;-72
2023/01/16 12:28:09;;;;;;;2.70;0.60;;;6.90;99.90;;;;;;4995830;28;20481;-72
2023/01/16 12:31:10;;;;;;;3.33;0.40;;;6.90;99.90;;;;;;4996695;28;20908;-72
2023/01/16 12:33:44;;;;;;;1.57;0.50;;;6.90;99.90;;;;;;4995804;28;20864;-72
2023/01/16 12:36:41;;;;;;;0.80;0.60;;;6.90;99.90;;;;;;4982569;28;20837;-72
2023/01/16 12:40:05;;;;;;;0.70;0.40;;;6.90;99.90;;;;;;4995789;28;20420;-72
2023/01/16 12:45:44;;;;;;;1.00;0.50;;;7.10;99.90;;;;;;4897109;29;20425;-72
2023/01/16 12:48:38;;;;;;;0.80;0.40;;;7.10;99.90;;;;;;4975268;28;20441;-73
2023/01/16 12:51:22;;;;;;;2.87;0.60;;;7.20;99.90;;;;;;4995369;28;20511;-69
2023/01/16 12:53:47;;;;;;;0.70;0.50;;;7.30;99.90;;;;;;4995007;28;20435;-71
2023/01/16 12:56:35;;;;;;;0.70;0.50;;;7.30;99.90;;;;;;4995405;28;21034;-72
2023/01/16 12:59:17;;;;;;;1.00;0.50;;;7.30;99.90;;;;;;4995385;28;20199;-73
2023/01/16 13:01:46;;;;;;;1.23;0.50;;;7.40;99.90;;;;;;4978792;28;20850;-72
2023/01/16 13:04:19;;;;;;;9.20;0.60;;;7.30;99.90;;;;;;4994928;28;20428;-72
2023/01/16 13:06:52;;;;;;;1.00;0.60;;;7.40;99.90;;;;;;4995129;28;21012;-73
2023/01/16 13:09:49;;;;;;;1.50;1.30;;;7.40;99.90;;;;;;4995364;28;20454;-72
2023/01/16 13:15:23;;;;;;;1.60;0.77;;;7.40;99.90;;;;;;4995107;28;20480;-72
2023/01/16 13:17:56;;;;;;;1.73;0.60;;;7.40;99.90;;;;;;4995090;28;20427;-72
2023/01/16 13:20:24;;;;;;;1.20;0.67;;;7.40;99.90;;;;;;4994805;28;20416;-72
2023/01/16 13:23:03;;;;;;;0.80;0.50;;;7.50;99.90;;;;;;4994601;28;20449;-72
2023/01/16 13:25:38;;;;;;;0.70;0.60;;;7.50;99.90;;;;;;4994533;28;20520;-72
2023/01/16 13:28:42;;;;;;;2.90;1.23;;;7.60;99.90;;;;;;4994841;28;20798;-72
2023/01/16 13:31:33;;;;;;;0.97;0.50;;;7.60;99.90;;;;;;4994280;28;20470;-73
2023/01/16 13:34:22;;;;;;;0.80;0.40;;;7.80;99.90;;;;;;4994356;28;20514;-72
2023/01/16 13:37:06;;;;;;;0.60;0.40;;;7.90;99.90;;;;;;4994135;28;20532;-73
2023/01/16 13:39:59;;;;;;;0.60;0.40;;;7.90;99.90;;;;;;4994412;28;20436;-72
2023/01/16 13:42:27;;;;;;;5.13;1.00;;;8.00;99.90;;;;;;4994296;28;21022;-72
2023/01/16 13:47:51;;;;;;;3.73;0.50;;;8.10;99.90;;;;;;4994370;28;20976;-73
2023/01/16 13:50:29;;;;;;;1.53;0.67;;;8.00;99.90;;;;;;4983872;28;20420;-70
2023/01/16 13:52:59;;;;;;;0.70;0.40;;;8.00;99.90;;;;;;4983589;28;20932;-72
2023/01/16 13:55:34;;;;;;;1.20;0.60;;;8.00;99.90;;;;;;4985437;28;20829;-70
2023/01/16 13:58:18;;;;;;;2.97;0.50;;;7.90;99.90;;;;;;4982533;28;20414;-71
2023/01/16 14:00:45;;;;;;;2.00;0.50;;;7.80;99.90;;;;;;4984079;28;20433;-72
2023/01/16 14:03:20;;;;;;;0.80;0.40;;;7.80;99.90;;;;;;4986502;28;20424;-72
2023/01/16 14:05:51;;;;;;;1.33;0.40;;;7.80;99.90;;;;;;4973822;28;20456;-73
2023/01/16 14:11:24;;;;;;;0.60;0.40;;;7.70;99.90;;;;;;4977796;28;20442;-71
2023/01/16 14:17:14;;;;;;;0.70;0.43;;;7.60;99.90;;;;;;4977018;28;20460;-72
2023/01/16 14:20:00;;;;;;;0.60;0.40;;;7.50;99.90;;;;;;4973083;28;20485;-73
2023/01/16 14:25:15;;;;;;;1.80;0.50;;;7.40;99.90;;;;;;4992652;28;20466;-72
2023/01/16 14:27:43;;;;;;;0.70;0.40;;;7.40;99.90;;;;;;4975242;28;20834;-72
2023/01/16 14:30:19;;;;;;;0.83;0.40;;;7.40;99.90;;;;;;4992841;28;20544;-73
2023/01/16 14:32:48;;;;;;;0.70;0.40;;;7.20;99.90;;;;;;4991908;28;20481;-73
2023/01/16 14:35:20;;;;;;;0.97;0.43;;;7.10;99.90;;;;;;4992473;28;20482;-72
2023/01/16 14:38:19;;;;;;;3.50;0.60;;;7.00;99.90;;;;;;4992558;28;20533;-72
2023/01/16 14:56:00;;;;;;;0.60;0.40;;;6.60;99.90;;;;;;4983602;28;20488;-72
2023/01/16 14:58:45;;;;;;;1.33;0.50;;;6.60;99.90;;;;;;4983167;28;20423;-73
2023/01/16 15:04:31;;;;;;;0.60;0.40;;;6.50;99.90;;;;;;4954129;28;20490;-71
2023/01/16 15:07:02;;;;;;;1.43;0.50;;;6.40;99.90;;;;;;4980920;28;20455;-72
2023/01/16 15:09:29;;;;;;;0.90;0.40;;;6.40;99.90;;;;;;4980518;28;20459;-71
2023/01/16 15:12:07;;;;;;;0.60;0.40;;;6.40;99.90;;;;;;4989000;28;20821;-72
2023/01/16 15:14:33;;;;;;;3.33;0.50;;;6.40;99.90;;;;;;4992430;28;20508;-72
2023/01/16 15:23:21;;;;;;;1.27;0.40;;;6.40;99.90;;;;;;4899021;29;20564;-72
2023/01/16 15:26:05;;;;;;;1.93;0.47;;;6.40;99.90;;;;;;4985896;28;20421;-72
2023/01/16 15:28:37;;;;;;;0.70;0.40;;;6.40;99.90;;;;;;4972983;28;20470;-71
2023/01/16 15:31:14;;;;;;;0.70;0.40;;;6.30;99.90;;;;;;4976851;28;21039;-71
2023/01/16 15:33:44;;;;;;;2.93;0.50;;;6.40;99.90;;;;;;4992381;28;20411;-72
2023/01/16 15:36:25;;;;;;;0.60;0.40;;;6.50;99.90;;;;;;4990107;28;20461;-73
2023/01/16 15:39:17;;;;;;;0.93;0.40;;;6.50;99.90;;;;;;4974953;28;20440;-72
2023/01/16 15:47:44;;;;;;;0.60;0.47;;;6.50;99.90;;;;;;4991629;28;20440;-72
2023/01/16 15:50:32;;;;;;;0.70;0.40;;;6.40;99.90;;;;;;4991710;28;20422;-71
2023/01/16 15:53:00;;;;;;;0.70;0.47;;;6.20;99.90;;;;;;4991336;28;20978;-72
2023/01/16 15:55:28;;;;;;;0.60;0.40;;;6.10;99.90;;;;;;4989532;28;20463;-71
2023/01/16 15:58:03;;;;;;;0.60;0.50;;;6.00;99.90;;;;;;4972424;28;20421;-72
2023/01/16 16:00:40;;;;;;;0.67;0.40;;;5.90;99.90;;;;;;4972407;28;20418;-72
2023/01/16 16:03:16;;;;;;;0.60;0.40;;;5.80;99.90;;;;;;4984182;28;20448;-71
2023/01/16 16:05:45;;;;;;;0.77;0.50;;;5.70;99.90;;;;;;4999542;28;20430;-71
2023/01/16 16:08:34;;;;;;;0.70;0.40;;;5.60;99.90;;;;;;5003000;28;20431;-71
2023/01/16 16:13:47;;;;;;;0.60;0.40;;;5.50;99.90;;;;;;4982662;28;20446;-71
2023/01/16 16:19:07;;;;;;;0.60;0.40;;;5.50;99.90;;;;;;4992282;28;20222;-71
2023/01/16 16:24:38;;;;;;;0.80;0.50;;;5.40;99.90;;;;;;4991837;28;20468;-73
2023/01/16 16:27:06;;;;;;;2.40;0.60;;;5.30;99.90;;;;;;4999627;28;20431;-74
2023/01/16 16:29:32;;;;;;;2.20;0.50;;;5.30;99.90;;;;;;4992253;28;20418;-73
2023/01/16 16:32:04;;;;;;;1.07;0.53;;;5.20;99.90;;;;;;4981412;28;20472;-74
2023/01/16 16:34:30;;;;;;;0.60;0.50;;;5.20;99.90;;;;;;4989183;28;20434;-73
2023/01/16 16:36:58;;;;;;;0.93;0.60;;;5.10;99.90;;;;;;4971223;28;20479;-73
2023/01/16 16:39:45;;;;;;;2.70;0.60;;;5.00;99.90;;;;;;4989420;28;20431;-75
2023/01/16 16:42:25;;;;;;;0.60;0.50;;;5.00;99.90;;;;;;4984504;28;20985;-73
2023/01/16 16:45:03;;;;;;;0.60;0.47;;;4.90;99.90;;;;;;4986974;28;20461;-74
2023/01/16 16:47:32;;;;;;;0.90;0.60;;;4.90;99.90;;;;;;4973167;28;20425;-73
2023/01/16 16:49:58;;;;;;;1.00;0.60;;;4.80;99.90;;;;;;4990027;28;20423;-76
2023/01/16 16:52:44;;;;;;;1.47;0.60;;;4.80;99.90;;;;;;4982044;28;20455;-74